sensor_id;sensor_type;location;lat;lon;timestamp;temperature;humidity
4874;DHT22;2451;49.970;9.068;2023-02-19T00:00:55;10.70;99.90
4874;DHT22;2451;49.970;9.068;2023-02-19T00:03:21;10.70;99.90
4874;DHT22;2451;49.970;9.068;2023-02-19T00:05:47;10.60;99.90
4874;DHT22;2451;49.970;9.068;2023-02-19T00:08:12;10.60;99.90
4874;DHT22;2451;49.970;9.068;2023-02-19T00:10:38;10.70;99.90
4874;DHT22;2451;49.970;9.068;2023-02-19T00:13:03;10.60;99.90
4874;DHT22;2451;49.970;9.068;2023-02-19T00:15:31;10.60;99.90
4874;DHT22;2451;49.970;9.068;2023-02-19T00:17:57;10.70;99.90
4874;DHT22;2451;49.970;9.068;2023-02-19T00:20:23;10.70;99.90
4874;DHT22;2451;49.970;9.068;2023-02-19T00:22:49;10.60;99.90
4874;DHT22;2451;49.970;9.068;2023-02-19T00:25:14;10.60;99.90
4874;DHT22;2451;49.970;9.068;2023-02-19T00:27:40;10.60;99.90
4874;DHT22;2451;49.970;9.068;2023-02-19T00:30:06;10.60;99.90
4874;DHT22;2451;49.970;9.068;2023-02-19T00:32:31;10.60;99.90
4874;DHT22;2451;49.970;9.068;2023-02-19T00:34:57;10.60;99.90
4874;DHT22;2451;49.970;9.068;2023-02-19T00:37:23;10.60;99.90
4874;DHT22;2451;49.970;9.068;2023-02-19T00:39:48;10.60;99.90
4874;DHT22;2451;49.970;9.068;2023-02-19T00:42:14;10.60;99.90
4874;DHT22;2451;49.970;9.068;2023-02-19T00:44:39;10.60;99.90
4874;DHT22;2451;49.970;9.068;2023-02-19T00:47:05;10.60;99.90
4874;DHT22;2451;49.970;9.068;2023-02-19T00:49:30;10.60;99.90
4874;DHT22;2451;49.970;9.068;2023-02-19T00:51:56;10.60;99.90
4874;DHT22;2451;49.970;9.068;2023-02-19T00:54:22;10.50;99.90
4874;DHT22;2451;49.970;9.068;2023-02-19T00:56:48;10.50;99.90
4874;DHT22;2451;49.970;9.068;2023-02-19T00:59:14;10.60;99.90
4874;DHT22;2451;49.970;9.068;2023-02-19T01:01:39;10.60;99.90
4874;DHT22;2451;49.970;9.068;2023-02-19T01:04:05;10.60;99.90
4874;DHT22;2451;49.970;9.068;2023-02-19T01:06:31;10.60;99.90
4874;DHT22;2451;49.970;9.068;2023-02-19T01:08:57;10.60;99.90
4874;DHT22;2451;49.970;9.068;2023-02-19T01:11:23;10.50;99.90
4874;DHT22;2451;49.970;9.068;2023-02-19T01:13:49;10.50;99.90
4874;DHT22;2451;49.970;9.068;2023-02-19T01:16:20;10.50;99.90
4874;DHT22;2451;49.970;9.068;2023-02-19T01:18:47;10.50;99.90
4874;DHT22;2451;49.970;9.068;2023-02-19T01:21:21;10.50;99.90
4874;DHT22;2451;49.970;9.068;2023-02-19T01:23:48;10.50;99.90
4874;DHT22;2451;49.970;9.068;2023-02-19T01:26:17;10.50;99.90
4874;DHT22;2451;49.970;9.068;2023-02-19T01:28:43;10.50;99.90
4874;DHT22;2451;49.970;9.068;2023-02-19T01:31:12;10.50;99.90
4874;DHT22;2451;49.970;9.068;2023-02-19T01:33:38;10.40;99.90
4874;DHT22;2451;49.970;9.068;2023-02-19T01:36:05;10.40;99.90
4874;DHT22;2451;49.970;9.068;2023-02-19T01:38:31;10.40;99.90
4874;DHT22;2451;49.970;9.068;2023-02-19T01:41:00;10.40;99.90
4874;DHT22;2451;49.970;9.068;2023-02-19T01:43:26;10.40;99.90
4874;DHT22;2451;49.970;9.068;2023-02-19T01:45:52;10.40;99.90
4874;DHT22;2451;49.970;9.068;2023-02-19T01:48:37;10.30;99.90
4874;DHT22;2451;49.970;9.068;2023-02-19T01:51:10;10.30;99.90
4874;DHT22;2451;49.970;9.068;2023-02-19T01:53:39;10.40;99.90
4874;DHT22;2451;49.970;9.068;2023-02-19T01:56:06;10.30;99.90
4874;DHT22;2451;49.970;9.068;2023-02-19T01:58:33;10.30;99.90
4874;DHT22;2451;49.970;9.068;2023-02-19T02:01:03;10.30;99.90
4874;DHT22;2451;49.970;9.068;2023-02-19T02:03:29;10.30;99.90
4874;DHT22;2451;49.970;9.068;2023-02-19T02:06:06;10.30;99.90
4874;DHT22;2451;49.970;9.068;2023-02-19T02:08:33;10.30;99.90
4874;DHT22;2451;49.970;9.068;2023-02-19T02:11:18;10.30;99.90
4874;DHT22;2451;49.970;9.068;2023-02-19T02:13:45;10.30;99.90
4874;DHT22;2451;49.970;9.068;2023-02-19T02:16:28;10.30;99.90
4874;DHT22;2451;49.970;9.068;2023-02-19T02:21:58;10.30;99.90
4874;DHT22;2451;49.970;9.068;2023-02-19T02:33:02;10.20;99.90
4874;DHT22;2451;49.970;9.068;2023-02-19T02:35:37;10.20;99.90
4874;DHT22;2451;49.970;9.068;2023-02-19T02:38:07;10.10;99.90
4874;DHT22;2451;49.970;9.068;2023-02-19T02:40:34;10.20;99.90
4874;DHT22;2451;49.970;9.068;2023-02-19T02:43:01;10.20;99.90
4874;DHT22;2451;49.970;9.068;2023-02-19T02:45:31;10.10;99.90
4874;DHT22;2451;49.970;9.068;2023-02-19T02:50:36;10.10;99.90
4874;DHT22;2451;49.970;9.068;2023-02-19T02:53:07;10.10;99.90
4874;DHT22;2451;49.970;9.068;2023-02-19T02:55:52;10.10;99.90
4874;DHT22;2451;49.970;9.068;2023-02-19T02:58:19;10.10;99.90
4874;DHT22;2451;49.970;9.068;2023-02-19T03:00:53;10.10;99.90
4874;DHT22;2451;49.970;9.068;2023-02-19T03:03:41;10.10;99.90
4874;DHT22;2451;49.970;9.068;2023-02-19T03:06:10;10.10;99.90
4874;DHT22;2451;49.970;9.068;2023-02-19T03:08:47;10.10;99.90
4874;DHT22;2451;49.970;9.068;2023-02-19T03:11:15;10.10;99.90
4874;DHT22;2451;49.970;9.068;2023-02-19T03:14:21;10.10;99.90
4874;DHT22;2451;49.970;9.068;2023-02-19T03:17:13;10.20;99.90
4874;DHT22;2451;49.970;9.068;2023-02-19T03:20:00;10.20;99.90
4874;DHT22;2451;49.970;9.068;2023-02-19T03:22:32;10.20;99.90
4874;DHT22;2451;49.970;9.068;2023-02-19T03:27:48;10.10;99.90
4874;DHT22;2451;49.970;9.068;2023-02-19T03:30:19;10.10;99.90
4874;DHT22;2451;49.970;9.068;2023-02-19T03:32:52;10.10;99.90
4874;DHT22;2451;49.970;9.068;2023-02-19T03:35:22;10.00;99.90
4874;DHT22;2451;49.970;9.068;2023-02-19T03:38:35;10.10;99.90
4874;DHT22;2451;49.970;9.068;2023-02-19T03:43:40;10.10;99.90
4874;DHT22;2451;49.970;9.068;2023-02-19T03:46:08;10.10;99.90
4874;DHT22;2451;49.970;9.068;2023-02-19T03:48:40;10.10;99.90
4874;DHT22;2451;49.970;9.068;2023-02-19T03:51:14;10.10;99.90
4874;DHT22;2451;49.970;9.068;2023-02-19T03:53:58;10.10;99.90
4874;DHT22;2451;49.970;9.068;2023-02-19T03:56:49;10.10;99.90
4874;DHT22;2451;49.970;9.068;2023-02-19T03:59:18;10.10;99.90
4874;DHT22;2451;49.970;9.068;2023-02-19T04:02:09;10.10;99.90
4874;DHT22;2451;49.970;9.068;2023-02-19T04:05:01;10.10;99.90
4874;DHT22;2451;49.970;9.068;2023-02-19T04:07:31;10.10;99.90
4874;DHT22;2451;49.970;9.068;2023-02-19T04:09:57;10.10;99.90
4874;DHT22;2451;49.970;9.068;2023-02-19T04:12:23;10.10;99.90
4874;DHT22;2451;49.970;9.068;2023-02-19T04:14:58;10.00;99.90
4874;DHT22;2451;49.970;9.068;2023-02-19T04:17:33;10.00;99.90
4874;DHT22;2451;49.970;9.068;2023-02-19T04:20:02;10.00;99.90
4874;DHT22;2451;49.970;9.068;2023-02-19T04:22:30;9.90;99.90
4874;DHT22;2451;49.970;9.068;2023-02-19T04:24:56;9.80;99.90
4874;DHT22;2451;49.970;9.068;2023-02-19T04:27:22;9.80;99.90
4874;DHT22;2451;49.970;9.068;2023-02-19T04:29:47;9.80;99.90
4874;DHT22;2451;49.970;9.068;2023-02-19T04:32:13;9.80;99.90
4874;DHT22;2451;49.970;9.068;2023-02-19T04:34:39;9.80;99.90
4874;DHT22;2451;49.970;9.068;2023-02-19T04:37:05;9.80;99.90
4874;DHT22;2451;49.970;9.068;2023-02-19T04:39:31;9.80;99.90
4874;DHT22;2451;49.970;9.068;2023-02-19T04:41:57;9.80;99.90
4874;DHT22;2451;49.970;9.068;2023-02-19T04:44:22;9.80;99.90
4874;DHT22;2451;49.970;9.068;2023-02-19T04:46:48;9.90;99.90
4874;DHT22;2451;49.970;9.068;2023-02-19T04:49:13;9.90;99.90
4874;DHT22;2451;49.970;9.068;2023-02-19T04:51:41;9.90;99.90
4874;DHT22;2451;49.970;9.068;2023-02-19T04:54:07;9.90;99.90
4874;DHT22;2451;49.970;9.068;2023-02-19T04:56:33;9.90;99.90
4874;DHT22;2451;49.970;9.068;2023-02-19T04:58:59;9.90;99.90
4874;DHT22;2451;49.970;9.068;2023-02-19T05:01:25;9.90;99.90
4874;DHT22;2451;49.970;9.068;2023-02-19T05:03:51;10.00;99.90
4874;DHT22;2451;49.970;9.068;2023-02-19T05:06:17;10.00;99.90
4874;DHT22;2451;49.970;9.068;2023-02-19T05:08:43;10.00;99.90
4874;DHT22;2451;49.970;9.068;2023-02-19T05:11:10;10.00;99.90
4874;DHT22;2451;49.970;9.068;2023-02-19T05:13:36;10.00;99.90
4874;DHT22;2451;49.970;9.068;2023-02-19T05:16:08;10.10;99.90
4874;DHT22;2451;49.970;9.068;2023-02-19T05:18:34;10.10;99.90
4874;DHT22;2451;49.970;9.068;2023-02-19T05:21:00;10.10;99.90
4874;DHT22;2451;49.970;9.068;2023-02-19T05:23:27;10.10;99.90
4874;DHT22;2451;49.970;9.068;2023-02-19T05:25:53;10.20;99.90
4874;DHT22;2451;49.970;9.068;2023-02-19T05:28:19;10.10;99.90
4874;DHT22;2451;49.970;9.068;2023-02-19T05:30:46;10.10;99.90
4874;DHT22;2451;49.970;9.068;2023-02-19T05:33:12;10.10;99.90
4874;DHT22;2451;49.970;9.068;2023-02-19T05:35:56;10.10;99.90
4874;DHT22;2451;49.970;9.068;2023-02-19T05:38:22;10.10;99.90
4874;DHT22;2451;49.970;9.068;2023-02-19T05:40:48;10.10;99.90
4874;DHT22;2451;49.970;9.068;2023-02-19T05:43:14;10.10;99.90
4874;DHT22;2451;49.970;9.068;2023-02-19T05:45:41;10.10;99.90
4874;DHT22;2451;49.970;9.068;2023-02-19T05:48:07;10.20;99.90
4874;DHT22;2451;49.970;9.068;2023-02-19T05:50:35;10.20;99.90
4874;DHT22;2451;49.970;9.068;2023-02-19T05:53:02;10.20;99.90
4874;DHT22;2451;49.970;9.068;2023-02-19T05:55:28;10.20;99.90
4874;DHT22;2451;49.970;9.068;2023-02-19T05:57:55;10.20;99.90
4874;DHT22;2451;49.970;9.068;2023-02-19T06:00:21;10.20;99.90
4874;DHT22;2451;49.970;9.068;2023-02-19T06:02:46;10.10;99.90
4874;DHT22;2451;49.970;9.068;2023-02-19T06:05:12;10.20;99.90
4874;DHT22;2451;49.970;9.068;2023-02-19T06:07:38;10.20;99.90
4874;DHT22;2451;49.970;9.068;2023-02-19T06:10:08;10.10;99.90
4874;DHT22;2451;49.970;9.068;2023-02-19T06:12:35;10.10;99.90
4874;DHT22;2451;49.970;9.068;2023-02-19T06:15:01;10.10;99.90
4874;DHT22;2451;49.970;9.068;2023-02-19T06:17:26;10.10;99.90
4874;DHT22;2451;49.970;9.068;2023-02-19T06:19:52;10.10;99.90
4874;DHT22;2451;49.970;9.068;2023-02-19T06:22:17;10.00;99.90
4874;DHT22;2451;49.970;9.068;2023-02-19T06:24:43;10.10;99.90
4874;DHT22;2451;49.970;9.068;2023-02-19T06:27:09;10.00;99.90
4874;DHT22;2451;49.970;9.068;2023-02-19T06:29:34;10.00;99.90
4874;DHT22;2451;49.970;9.068;2023-02-19T06:32:04;10.00;99.90
4874;DHT22;2451;49.970;9.068;2023-02-19T06:34:30;10.00;99.90
4874;DHT22;2451;49.970;9.068;2023-02-19T06:36:56;10.00;99.90
4874;DHT22;2451;49.970;9.068;2023-02-19T06:39:22;10.00;99.90
4874;DHT22;2451;49.970;9.068;2023-02-19T06:41:48;10.00;99.90
4874;DHT22;2451;49.970;9.068;2023-02-19T06:44:14;10.00;99.90
4874;DHT22;2451;49.970;9.068;2023-02-19T06:46:39;10.00;99.90
4874;DHT22;2451;49.970;9.068;2023-02-19T06:49:05;9.90;99.90
4874;DHT22;2451;49.970;9.068;2023-02-19T06:51:30;10.00;99.90
4874;DHT22;2451;49.970;9.068;2023-02-19T06:53:58;10.00;99.90
4874;DHT22;2451;49.970;9.068;2023-02-19T06:56:27;10.00;99.90
4874;DHT22;2451;49.970;9.068;2023-02-19T06:58:55;10.00;99.90
4874;DHT22;2451;49.970;9.068;2023-02-19T07:01:22;10.00;99.90
4874;DHT22;2451;49.970;9.068;2023-02-19T07:03:48;10.00;99.90
4874;DHT22;2451;49.970;9.068;2023-02-19T07:06:14;10.00;99.90
4874;DHT22;2451;49.970;9.068;2023-02-19T07:08:39;10.00;99.90
4874;DHT22;2451;49.970;9.068;2023-02-19T07:11:05;10.00;99.90
4874;DHT22;2451;49.970;9.068;2023-02-19T07:13:30;10.00;99.90
4874;DHT22;2451;49.970;9.068;2023-02-19T07:15:58;10.00;99.90
4874;DHT22;2451;49.970;9.068;2023-02-19T07:18:24;10.00;99.90
4874;DHT22;2451;49.970;9.068;2023-02-19T07:20:50;9.90;99.90
4874;DHT22;2451;49.970;9.068;2023-02-19T07:23:15;10.00;99.90
4874;DHT22;2451;49.970;9.068;2023-02-19T07:25:41;9.90;99.90
4874;DHT22;2451;49.970;9.068;2023-02-19T07:28:07;9.90;99.90
4874;DHT22;2451;49.970;9.068;2023-02-19T07:30:33;10.00;99.90
4874;DHT22;2451;49.970;9.068;2023-02-19T07:32:58;10.00;99.90
4874;DHT22;2451;49.970;9.068;2023-02-19T07:35:24;10.00;99.90
4874;DHT22;2451;49.970;9.068;2023-02-19T07:37:49;10.10;99.90
4874;DHT22;2451;49.970;9.068;2023-02-19T07:40:15;10.10;99.90
4874;DHT22;2451;49.970;9.068;2023-02-19T07:42:40;10.10;99.90
4874;DHT22;2451;49.970;9.068;2023-02-19T07:45:06;10.10;99.90
4874;DHT22;2451;49.970;9.068;2023-02-19T07:47:32;10.10;99.90
4874;DHT22;2451;49.970;9.068;2023-02-19T07:49:57;10.20;99.90
4874;DHT22;2451;49.970;9.068;2023-02-19T07:52:23;10.20;99.90
4874;DHT22;2451;49.970;9.068;2023-02-19T07:54:49;10.20;99.90
4874;DHT22;2451;49.970;9.068;2023-02-19T07:57:14;10.10;99.90
4874;DHT22;2451;49.970;9.068;2023-02-19T07:59:42;10.20;99.90
4874;DHT22;2451;49.970;9.068;2023-02-19T08:02:19;10.20;99.90
4874;DHT22;2451;49.970;9.068;2023-02-19T08:05:05;10.20;99.90
4874;DHT22;2451;49.970;9.068;2023-02-19T08:07:34;10.20;99.90
4874;DHT22;2451;49.970;9.068;2023-02-19T08:10:01;10.20;99.90
4874;DHT22;2451;49.970;9.068;2023-02-19T08:12:59;10.10;99.90
4874;DHT22;2451;49.970;9.068;2023-02-19T08:15:48;10.30;99.90
4874;DHT22;2451;49.970;9.068;2023-02-19T08:18:15;10.30;99.90
4874;DHT22;2451;49.970;9.068;2023-02-19T08:20:41;10.30;99.90
4874;DHT22;2451;49.970;9.068;2023-02-19T08:23:07;10.40;99.90
4874;DHT22;2451;49.970;9.068;2023-02-19T08:25:33;10.40;99.90
4874;DHT22;2451;49.970;9.068;2023-02-19T08:27:59;10.40;99.90
4874;DHT22;2451;49.970;9.068;2023-02-19T08:30:25;10.40;99.90
4874;DHT22;2451;49.970;9.068;2023-02-19T08:32:51;10.40;99.90
4874;DHT22;2451;49.970;9.068;2023-02-19T08:35:17;10.40;99.90
4874;DHT22;2451;49.970;9.068;2023-02-19T08:37:43;10.40;99.90
4874;DHT22;2451;49.970;9.068;2023-02-19T08:40:09;10.40;99.90
4874;DHT22;2451;49.970;9.068;2023-02-19T08:42:35;10.40;99.90
4874;DHT22;2451;49.970;9.068;2023-02-19T08:45:00;10.40;99.90
4874;DHT22;2451;49.970;9.068;2023-02-19T08:47:26;10.50;99.90
4874;DHT22;2451;49.970;9.068;2023-02-19T08:49:51;10.50;99.90
4874;DHT22;2451;49.970;9.068;2023-02-19T08:52:17;10.50;99.90
4874;DHT22;2451;49.970;9.068;2023-02-19T08:54:42;10.50;99.90
4874;DHT22;2451;49.970;9.068;2023-02-19T08:57:08;10.60;99.90
4874;DHT22;2451;49.970;9.068;2023-02-19T08:59:33;10.60;99.90
4874;DHT22;2451;49.970;9.068;2023-02-19T09:01:59;10.60;99.90
4874;DHT22;2451;49.970;9.068;2023-02-19T09:04:25;10.50;99.90
4874;DHT22;2451;49.970;9.068;2023-02-19T09:06:51;10.50;99.90
4874;DHT22;2451;49.970;9.068;2023-02-19T09:09:16;10.40;99.90
4874;DHT22;2451;49.970;9.068;2023-02-19T09:11:42;10.30;99.90
4874;DHT22;2451;49.970;9.068;2023-02-19T09:14:07;10.30;99.90
4874;DHT22;2451;49.970;9.068;2023-02-19T09:16:34;10.30;99.90
4874;DHT22;2451;49.970;9.068;2023-02-19T09:19:00;10.30;99.90
4874;DHT22;2451;49.970;9.068;2023-02-19T09:21:25;10.30;99.90
4874;DHT22;2451;49.970;9.068;2023-02-19T09:23:51;10.40;99.90
4874;DHT22;2451;49.970;9.068;2023-02-19T09:26:17;10.50;99.90
4874;DHT22;2451;49.970;9.068;2023-02-19T09:28:42;10.60;99.90
4874;DHT22;2451;49.970;9.068;2023-02-19T09:31:10;10.70;99.90
4874;DHT22;2451;49.970;9.068;2023-02-19T09:33:36;10.90;99.90
4874;DHT22;2451;49.970;9.068;2023-02-19T09:36:02;10.90;99.90
4874;DHT22;2451;49.970;9.068;2023-02-19T09:38:28;11.10;99.90
4874;DHT22;2451;49.970;9.068;2023-02-19T09:40:58;11.30;99.90
4874;DHT22;2451;49.970;9.068;2023-02-19T09:43:30;11.50;99.90
4874;DHT22;2451;49.970;9.068;2023-02-19T09:48:45;11.70;99.90
4874;DHT22;2451;49.970;9.068;2023-02-19T09:51:11;11.60;99.90
4874;DHT22;2451;49.970;9.068;2023-02-19T09:53:43;11.60;99.90
4874;DHT22;2451;49.970;9.068;2023-02-19T09:56:10;11.70;99.90
4874;DHT22;2451;49.970;9.068;2023-02-19T09:58:46;12.20;99.90
4874;DHT22;2451;49.970;9.068;2023-02-19T10:01:13;12.50;99.90
4874;DHT22;2451;49.970;9.068;2023-02-19T10:03:40;12.80;99.90
4874;DHT22;2451;49.970;9.068;2023-02-19T10:06:20;12.80;99.90
4874;DHT22;2451;49.970;9.068;2023-02-19T10:08:49;12.80;99.90
4874;DHT22;2451;49.970;9.068;2023-02-19T10:11:16;12.60;99.90
4874;DHT22;2451;49.970;9.068;2023-02-19T10:14:05;12.50;99.90
4874;DHT22;2451;49.970;9.068;2023-02-19T10:16:35;12.30;99.90
4874;DHT22;2451;49.970;9.068;2023-02-19T10:19:02;12.10;99.90
4874;DHT22;2451;49.970;9.068;2023-02-19T10:21:29;12.00;99.90
4874;DHT22;2451;49.970;9.068;2023-02-19T10:23:59;11.90;99.90
4874;DHT22;2451;49.970;9.068;2023-02-19T10:26:26;11.90;99.90
4874;DHT22;2451;49.970;9.068;2023-02-19T10:28:52;11.90;99.90
4874;DHT22;2451;49.970;9.068;2023-02-19T10:31:22;11.80;99.90
4874;DHT22;2451;49.970;9.068;2023-02-19T10:33:56;11.80;99.90
4874;DHT22;2451;49.970;9.068;2023-02-19T10:36:32;11.70;99.90
4874;DHT22;2451;49.970;9.068;2023-02-19T10:39:02;11.70;99.90
4874;DHT22;2451;49.970;9.068;2023-02-19T10:41:30;11.70;99.90
4874;DHT22;2451;49.970;9.068;2023-02-19T10:44:56;11.60;99.90
4874;DHT22;2451;49.970;9.068;2023-02-19T10:46:52;11.60;99.90
4874;DHT22;2451;49.970;9.068;2023-02-19T10:49:25;11.40;99.90
4874;DHT22;2451;49.970;9.068;2023-02-19T10:51:53;11.30;99.90
4874;DHT22;2451;49.970;9.068;2023-02-19T10:54:25;11.20;99.90
4874;DHT22;2451;49.970;9.068;2023-02-19T10:57:22;11.20;99.90
4874;DHT22;2451;49.970;9.068;2023-02-19T10:59:55;11.00;99.90
4874;DHT22;2451;49.970;9.068;2023-02-19T11:02:26;10.90;99.90
4874;DHT22;2451;49.970;9.068;2023-02-19T11:07:38;10.70;99.90
4874;DHT22;2451;49.970;9.068;2023-02-19T11:10:25;10.60;99.90
4874;DHT22;2451;49.970;9.068;2023-02-19T11:12:54;10.50;99.90
4874;DHT22;2451;49.970;9.068;2023-02-19T11:15:34;10.40;99.90
4874;DHT22;2451;49.970;9.068;2023-02-19T11:20:30;10.30;99.90
4874;DHT22;2451;49.970;9.068;2023-02-19T11:23:18;10.50;99.90
4874;DHT22;2451;49.970;9.068;2023-02-19T11:25:48;10.60;99.90
4874;DHT22;2451;49.970;9.068;2023-02-19T11:28:26;10.60;99.90
4874;DHT22;2451;49.970;9.068;2023-02-19T11:30:53;10.70;99.90
4874;DHT22;2451;49.970;9.068;2023-02-19T11:33:24;10.80;99.90
4874;DHT22;2451;49.970;9.068;2023-02-19T11:35:58;10.80;99.90
4874;DHT22;2451;49.970;9.068;2023-02-19T11:38:25;10.70;99.90
4874;DHT22;2451;49.970;9.068;2023-02-19T11:47:01;10.80;99.90
4874;DHT22;2451;49.970;9.068;2023-02-19T11:49:48;10.80;99.90
4874;DHT22;2451;49.970;9.068;2023-02-19T11:52:21;10.70;99.90
4874;DHT22;2451;49.970;9.068;2023-02-19T11:54:58;10.80;99.90
4874;DHT22;2451;49.970;9.068;2023-02-19T12:00:18;10.80;99.90
4874;DHT22;2451;49.970;9.068;2023-02-19T12:08:35;11.10;99.90
4874;DHT22;2451;49.970;9.068;2023-02-19T12:20:10;11.50;99.90
4874;DHT22;2451;49.970;9.068;2023-02-19T12:22:50;11.50;99.90
4874;DHT22;2451;49.970;9.068;2023-02-19T12:31:46;11.60;99.90
4874;DHT22;2451;49.970;9.068;2023-02-19T12:34:29;11.70;99.90
4874;DHT22;2451;49.970;9.068;2023-02-19T12:43:00;11.80;99.90
4874;DHT22;2451;49.970;9.068;2023-02-19T12:45:46;11.80;99.90
4874;DHT22;2451;49.970;9.068;2023-02-19T12:48:28;11.70;99.90
4874;DHT22;2451;49.970;9.068;2023-02-19T12:50:58;11.70;99.90
4874;DHT22;2451;49.970;9.068;2023-02-19T12:53:54;11.80;99.90
4874;DHT22;2451;49.970;9.068;2023-02-19T12:56:27;11.80;99.90
4874;DHT22;2451;49.970;9.068;2023-02-19T12:59:08;11.90;99.90
4874;DHT22;2451;49.970;9.068;2023-02-19T13:01:47;11.90;99.90
4874;DHT22;2451;49.970;9.068;2023-02-19T13:04:25;12.20;99.90
4874;DHT22;2451;49.970;9.068;2023-02-19T13:14:48;12.30;99.90
4874;DHT22;2451;49.970;9.068;2023-02-19T13:17:18;12.40;99.90
4874;DHT22;2451;49.970;9.068;2023-02-19T13:19:45;12.40;99.90
4874;DHT22;2451;49.970;9.068;2023-02-19T13:28:40;12.10;99.90
4874;DHT22;2451;49.970;9.068;2023-02-19T13:31:22;12.00;99.90
4874;DHT22;2451;49.970;9.068;2023-02-19T13:34:11;12.00;99.90
4874;DHT22;2451;49.970;9.068;2023-02-19T13:36:40;12.00;99.90
4874;DHT22;2451;49.970;9.068;2023-02-19T13:39:06;12.00;99.90
4874;DHT22;2451;49.970;9.068;2023-02-19T13:41:40;12.00;99.90
4874;DHT22;2451;49.970;9.068;2023-02-19T13:44:16;12.00;99.90
4874;DHT22;2451;49.970;9.068;2023-02-19T13:46:44;12.00;99.90
4874;DHT22;2451;49.970;9.068;2023-02-19T13:52:00;12.00;99.90
4874;DHT22;2451;49.970;9.068;2023-02-19T13:54:30;11.90;99.90
4874;DHT22;2451;49.970;9.068;2023-02-19T13:59:42;11.90;99.90
4874;DHT22;2451;49.970;9.068;2023-02-19T14:02:30;11.90;99.90
4874;DHT22;2451;49.970;9.068;2023-02-19T14:04:59;11.90;99.90
4874;DHT22;2451;49.970;9.068;2023-02-19T14:07:48;11.80;99.90
4874;DHT22;2451;49.970;9.068;2023-02-19T14:10:51;11.80;99.90
4874;DHT22;2451;49.970;9.068;2023-02-19T14:19:14;11.80;99.90
4874;DHT22;2451;49.970;9.068;2023-02-19T14:21:40;11.90;99.90
4874;DHT22;2451;49.970;9.068;2023-02-19T14:24:13;11.80;99.90
4874;DHT22;2451;49.970;9.068;2023-02-19T14:26:39;11.90;99.90
4874;DHT22;2451;49.970;9.068;2023-02-19T14:29:07;11.90;99.90
4874;DHT22;2451;49.970;9.068;2023-02-19T14:31:38;11.90;99.90
4874;DHT22;2451;49.970;9.068;2023-02-19T14:34:12;12.00;99.90
4874;DHT22;2451;49.970;9.068;2023-02-19T14:39:23;12.10;99.90
4874;DHT22;2451;49.970;9.068;2023-02-19T14:42:14;12.20;99.90
4874;DHT22;2451;49.970;9.068;2023-02-19T14:44:50;12.20;99.90
4874;DHT22;2451;49.970;9.068;2023-02-19T14:47:21;12.30;99.90
4874;DHT22;2451;49.970;9.068;2023-02-19T14:50:00;12.30;99.90
4874;DHT22;2451;49.970;9.068;2023-02-19T14:52:39;12.30;99.90
4874;DHT22;2451;49.970;9.068;2023-02-19T14:57:45;12.20;99.90
4874;DHT22;2451;49.970;9.068;2023-02-19T15:02:47;12.00;99.90
4874;DHT22;2451;49.970;9.068;2023-02-19T15:05:21;11.80;99.90
4874;DHT22;2451;49.970;9.068;2023-02-19T15:07:48;11.80;99.90
4874;DHT22;2451;49.970;9.068;2023-02-19T15:10:14;11.80;99.90
4874;DHT22;2451;49.970;9.068;2023-02-19T15:13:06;11.90;99.90
4874;DHT22;2451;49.970;9.068;2023-02-19T15:15:35;11.80;99.90
4874;DHT22;2451;49.970;9.068;2023-02-19T15:18:05;11.70;99.90
4874;DHT22;2451;49.970;9.068;2023-02-19T15:20:35;11.60;99.90
4874;DHT22;2451;49.970;9.068;2023-02-19T15:23:05;11.50;99.90
4874;DHT22;2451;49.970;9.068;2023-02-19T15:25:35;11.40;99.90
4874;DHT22;2451;49.970;9.068;2023-02-19T15:30:45;11.20;99.90
4874;DHT22;2451;49.970;9.068;2023-02-19T15:33:16;11.10;99.90
4874;DHT22;2451;49.970;9.068;2023-02-19T15:35:47;11.00;99.90
4874;DHT22;2451;49.970;9.068;2023-02-19T15:38:14;11.00;99.90
4874;DHT22;2451;49.970;9.068;2023-02-19T15:40:43;10.90;99.90
4874;DHT22;2451;49.970;9.068;2023-02-19T15:43:22;10.90;99.90
4874;DHT22;2451;49.970;9.068;2023-02-19T15:45:50;10.80;99.90
4874;DHT22;2451;49.970;9.068;2023-02-19T15:48:22;10.80;99.90
4874;DHT22;2451;49.970;9.068;2023-02-19T15:50:59;10.80;99.90
4874;DHT22;2451;49.970;9.068;2023-02-19T15:53:40;10.70;99.90
4874;DHT22;2451;49.970;9.068;2023-02-19T15:56:14;10.70;99.90
4874;DHT22;2451;49.970;9.068;2023-02-19T15:58:49;10.70;99.90
4874;DHT22;2451;49.970;9.068;2023-02-19T16:01:21;10.70;99.90
4874;DHT22;2451;49.970;9.068;2023-02-19T16:03:49;10.70;99.90
4874;DHT22;2451;49.970;9.068;2023-02-19T16:06:17;10.70;99.90
4874;DHT22;2451;49.970;9.068;2023-02-19T16:08:44;10.70;99.90
4874;DHT22;2451;49.970;9.068;2023-02-19T16:13:49;10.60;99.90
4874;DHT22;2451;49.970;9.068;2023-02-19T16:16:25;10.60;99.90
4874;DHT22;2451;49.970;9.068;2023-02-19T16:18:54;10.50;99.90
4874;DHT22;2451;49.970;9.068;2023-02-19T16:21:22;10.50;99.90
4874;DHT22;2451;49.970;9.068;2023-02-19T16:23:52;10.40;99.90
4874;DHT22;2451;49.970;9.068;2023-02-19T16:26:19;10.50;99.90
4874;DHT22;2451;49.970;9.068;2023-02-19T16:28:50;10.40;99.90
4874;DHT22;2451;49.970;9.068;2023-02-19T16:31:20;10.40;99.90
4874;DHT22;2451;49.970;9.068;2023-02-19T16:33:47;10.30;99.90
4874;DHT22;2451;49.970;9.068;2023-02-19T16:39:13;10.30;99.90
4874;DHT22;2451;49.970;9.068;2023-02-19T16:46:49;10.30;99.90
4874;DHT22;2451;49.970;9.068;2023-02-19T16:49:15;10.30;99.90
4874;DHT22;2451;49.970;9.068;2023-02-19T16:51:43;10.30;99.90
4874;DHT22;2451;49.970;9.068;2023-02-19T16:54:08;10.30;99.90
4874;DHT22;2451;49.970;9.068;2023-02-19T16:56:35;10.30;99.90
4874;DHT22;2451;49.970;9.068;2023-02-19T16:59:00;10.30;99.90
4874;DHT22;2451;49.970;9.068;2023-02-19T17:01:26;10.30;99.90
4874;DHT22;2451;49.970;9.068;2023-02-19T17:03:57;10.30;99.90
4874;DHT22;2451;49.970;9.068;2023-02-19T17:06:26;10.30;99.90
4874;DHT22;2451;49.970;9.068;2023-02-19T17:08:52;10.20;99.90
4874;DHT22;2451;49.970;9.068;2023-02-19T17:11:18;10.30;99.90
4874;DHT22;2451;49.970;9.068;2023-02-19T17:13:45;10.20;99.90
4874;DHT22;2451;49.970;9.068;2023-02-19T17:16:17;10.20;99.90
4874;DHT22;2451;49.970;9.068;2023-02-19T17:18:42;10.20;99.90
4874;DHT22;2451;49.970;9.068;2023-02-19T17:21:18;10.20;99.90
4874;DHT22;2451;49.970;9.068;2023-02-19T17:23:45;10.20;99.90
4874;DHT22;2451;49.970;9.068;2023-02-19T17:26:20;10.20;99.90
4874;DHT22;2451;49.970;9.068;2023-02-19T17:28:46;10.20;99.90
4874;DHT22;2451;49.970;9.068;2023-02-19T17:31:12;10.20;99.90
4874;DHT22;2451;49.970;9.068;2023-02-19T17:33:41;10.20;99.90
4874;DHT22;2451;49.970;9.068;2023-02-19T17:36:15;10.10;99.90
4874;DHT22;2451;49.970;9.068;2023-02-19T17:38:41;10.00;99.90
4874;DHT22;2451;49.970;9.068;2023-02-19T17:41:06;10.00;99.90
4874;DHT22;2451;49.970;9.068;2023-02-19T17:43:32;9.90;99.90
4874;DHT22;2451;49.970;9.068;2023-02-19T17:45:57;9.90;99.90
4874;DHT22;2451;49.970;9.068;2023-02-19T17:48:23;9.80;99.90
4874;DHT22;2451;49.970;9.068;2023-02-19T17:50:48;9.80;99.90
4874;DHT22;2451;49.970;9.068;2023-02-19T17:53:16;9.80;99.90
4874;DHT22;2451;49.970;9.068;2023-02-19T17:55:42;9.80;99.90
4874;DHT22;2451;49.970;9.068;2023-02-19T17:58:08;9.80;99.90
4874;DHT22;2451;49.970;9.068;2023-02-19T18:00:33;9.70;99.90
4874;DHT22;2451;49.970;9.068;2023-02-19T18:03:01;9.60;99.90
4874;DHT22;2451;49.970;9.068;2023-02-19T18:05:26;9.50;99.90
4874;DHT22;2451;49.970;9.068;2023-02-19T18:07:53;9.50;99.90
4874;DHT22;2451;49.970;9.068;2023-02-19T18:10:20;9.50;99.90